AMX866 MMMX-MMVR
Flight info
| Callsign | AMX866 |
|---|---|
| Flight time | 0h 50m |
| Altitude | 31000 |
| Route | NOXOS3A NOXOS UT155 AVALI UT61 DURIB DURIB1A |
| Aircraft | B739/M-SDE2E3FGHIRWXY/LB1 |
Departure
| Time | 2026-05-08 03:04 |
|---|---|
| Airport | Mexico City Benito Juárez International Airport (MMMX) |
Arrival
| Time | 2026-05-08 03:55 |
|---|---|
| Airport | General Heriberto Jara International Airport (MMVR) |
| Time | Latitude | Longitude | Altitude | Speed | Heading |
|---|---|---|---|---|---|
| 2026-05-08 02:39 | 19.43431 | -99.08259 | 7267 ft | 0 kts | 330° |
| 2026-05-08 02:54 | 19.43426 | -99.08256 | 7303 ft | 2 kts | 328° |
| 2026-05-08 02:54 | 19.43412 | -99.08247 | 7304 ft | 2 kts | 327° |
| 2026-05-08 02:54 | 19.43398 | -99.08237 | 7304 ft | 2 kts | 322° |
| 2026-05-08 02:54 | 19.43385 | -99.08226 | 7304 ft | 2 kts | 315° |
| 2026-05-08 02:55 | 19.43375 | -99.08212 | 7304 ft | 2 kts | 297° |
| 2026-05-08 02:55 | 19.43375 | -99.08184 | 7304 ft | 1 kts | 239° |
| 2026-05-08 02:55 | 19.43375 | -99.08183 | 7304 ft | 0 kts | 239° |
| 2026-05-08 02:57 | 19.43372 | -99.08188 | 7304 ft | 4 kts | 240° |
| 2026-05-08 02:57 | 19.43345 | -99.08236 | 7304 ft | 11 kts | 239° |
| 2026-05-08 02:57 | 19.43292 | -99.08331 | 7303 ft | 18 kts | 239° |
| 2026-05-08 02:57 | 19.43233 | -99.08437 | 7303 ft | 14 kts | 239° |
| 2026-05-08 02:58 | 19.43183 | -99.08527 | 7302 ft | 14 kts | 239° |
| 2026-05-08 02:58 | 19.43144 | -99.08598 | 7303 ft | 6 kts | 239° |
| 2026-05-08 02:58 | 19.43143 | -99.08600 | 7303 ft | 1 kts | 239° |
| 2026-05-08 02:58 | 19.43106 | -99.08667 | 7302 ft | 12 kts | 239° |
| 2026-05-08 02:59 | 19.43058 | -99.08722 | 7302 ft | 9 kts | 200° |
| 2026-05-08 02:59 | 19.43051 | -99.08724 | 7302 ft | 0 kts | 185° |
| 2026-05-08 02:59 | 19.43041 | -99.08721 | 7302 ft | 0 kts | 163° |
| 2026-05-08 03:02 | 19.43032 | -99.08722 | 7302 ft | 4 kts | 181° |
| 2026-05-08 03:02 | 19.42998 | -99.08718 | 7302 ft | 3 kts | 174° |
| 2026-05-08 03:02 | 19.42968 | -99.08700 | 7302 ft | 7 kts | 113° |
| 2026-05-08 03:02 | 19.42973 | -99.08666 | 7302 ft | 0 kts | 67° |
| 2026-05-08 03:03 | 19.42979 | -99.08654 | 7302 ft | 0 kts | 61° |
| 2026-05-08 03:03 | 19.42984 | -99.08645 | 7297 ft | 14 kts | 61° |
| 2026-05-08 03:03 | 19.43158 | -99.08334 | 7302 ft | 83 kts | 58° |
| 2026-05-08 03:04 | 19.43562 | -99.07618 | 7305 ft | 141 kts | 59° |
| 2026-05-08 03:04 | 19.44141 | -99.06573 | 7312 ft | 186 kts | 59° |
| 2026-05-08 03:04 | 19.44740 | -99.05305 | 7832 ft | 190 kts | 59° |
| 2026-05-08 03:04 | 19.45369 | -99.04078 | 8769 ft | 189 kts | 58° |
| 2026-05-08 03:05 | 19.46091 | -99.02905 | 9272 ft | 192 kts | 58° |
| 2026-05-08 03:05 | 19.46849 | -99.01664 | 9476 ft | 213 kts | 59° |
| 2026-05-08 03:05 | 19.47662 | -99.00251 | 9725 ft | 231 kts | 60° |
| 2026-05-08 03:05 | 19.48496 | -98.98778 | 10218 ft | 239 kts | 60° |
| 2026-05-08 03:06 | 19.49403 | -98.97183 | 10271 ft | 266 kts | 59° |
| 2026-05-08 03:06 | 19.50381 | -98.95465 | 10672 ft | 274 kts | 60° |
| 2026-05-08 03:06 | 19.51324 | -98.93765 | 11339 ft | 274 kts | 61° |
| 2026-05-08 03:06 | 19.52317 | -98.91854 | 11038 ft | 318 kts | 65° |
| 2026-05-08 03:07 | 19.53367 | -98.89621 | 10911 ft | 349 kts | 63° |
| 2026-05-08 03:07 | 19.54264 | -98.87267 | 11865 ft | 339 kts | 75° |
| 2026-05-08 03:07 | 19.54857 | -98.84903 | 12988 ft | 326 kts | 78° |
| 2026-05-08 03:07 | 19.55379 | -98.82617 | 14214 ft | 312 kts | 78° |
| 2026-05-08 03:08 | 19.55908 | -98.80384 | 15021 ft | 314 kts | 77° |
| 2026-05-08 03:08 | 19.56468 | -98.78157 | 15625 ft | 319 kts | 76° |
| 2026-05-08 03:08 | 19.57069 | -98.75848 | 16290 ft | 322 kts | 76° |
| 2026-05-08 03:08 | 19.57662 | -98.73586 | 16944 ft | 324 kts | 76° |
| 2026-05-08 03:09 | 19.58187 | -98.71255 | 17590 ft | 326 kts | 80° |
| 2026-05-08 03:09 | 19.58603 | -98.68875 | 18228 ft | 329 kts | 81° |
| 2026-05-08 03:09 | 19.58996 | -98.66470 | 18812 ft | 332 kts | 81° |
| 2026-05-08 03:09 | 19.59395 | -98.64053 | 19397 ft | 334 kts | 81° |
| 2026-05-08 03:10 | 19.59805 | -98.61622 | 19965 ft | 336 kts | 81° |
| 2026-05-08 03:10 | 19.60226 | -98.59171 | 20526 ft | 340 kts | 81° |
| 2026-05-08 03:10 | 19.60655 | -98.56697 | 21077 ft | 343 kts | 81° |
| 2026-05-08 03:10 | 19.61091 | -98.54194 | 21630 ft | 346 kts | 81° |
| 2026-05-08 03:11 | 19.61525 | -98.51671 | 22175 ft | 349 kts | 83° |
| 2026-05-08 03:11 | 19.61675 | -98.49098 | 22698 ft | 350 kts | 94° |
| 2026-05-08 03:11 | 19.61567 | -98.46508 | 23235 ft | 353 kts | 96° |
| 2026-05-08 03:11 | 19.61437 | -98.43841 | 23169 ft | 371 kts | 95° |
| 2026-05-08 03:12 | 19.61335 | -98.41072 | 23467 ft | 376 kts | 94° |
| 2026-05-08 03:12 | 19.61258 | -98.38348 | 24359 ft | 363 kts | 94° |
| 2026-05-08 03:12 | 19.61187 | -98.35688 | 25030 ft | 360 kts | 94° |
| 2026-05-08 03:12 | 19.61114 | -98.33016 | 25465 ft | 364 kts | 94° |
| 2026-05-08 03:13 | 19.61039 | -98.30312 | 25851 ft | 369 kts | 94° |
| 2026-05-08 03:13 | 19.60963 | -98.27574 | 26287 ft | 372 kts | 94° |
| 2026-05-08 03:13 | 19.60887 | -98.24853 | 26749 ft | 375 kts | 94° |
| 2026-05-08 03:13 | 19.60809 | -98.22078 | 27189 ft | 377 kts | 94° |
| 2026-05-08 03:14 | 19.60731 | -98.19284 | 27619 ft | 380 kts | 94° |
| 2026-05-08 03:14 | 19.60651 | -98.16469 | 28049 ft | 384 kts | 94° |
| 2026-05-08 03:14 | 19.60570 | -98.13632 | 28473 ft | 386 kts | 94° |
| 2026-05-08 03:14 | 19.60488 | -98.10765 | 28898 ft | 389 kts | 94° |
| 2026-05-08 03:15 | 19.60406 | -98.07887 | 29338 ft | 392 kts | 94° |
| 2026-05-08 03:15 | 19.60322 | -98.04988 | 29780 ft | 394 kts | 94° |
| 2026-05-08 03:15 | 19.60271 | -98.02075 | 30186 ft | 399 kts | 88° |
| 2026-05-08 03:15 | 19.60876 | -97.99183 | 30455 ft | 407 kts | 68° |
| 2026-05-08 03:16 | 19.61670 | -97.97377 | 30709 ft | 409 kts | 65° |
| 2026-05-08 03:16 | 19.62953 | -97.94680 | 31060 ft | 410 kts | 64° |
| 2026-05-08 03:16 | 19.64276 | -97.91970 | 31108 ft | 417 kts | 64° |
| 2026-05-08 03:17 | 19.66986 | -97.86391 | 31122 ft | 433 kts | 64° |
| 2026-05-08 03:17 | 19.69753 | -97.80588 | 31113 ft | 448 kts | 64° |
| 2026-05-08 03:18 | 19.72585 | -97.74588 | 31102 ft | 460 kts | 65° |
| 2026-05-08 03:18 | 19.73810 | -97.71432 | 30979 ft | 467 kts | 74° |
| 2026-05-08 03:18 | 19.74521 | -97.68031 | 30627 ft | 477 kts | 83° |
| 2026-05-08 03:18 | 19.74998 | -97.64523 | 30286 ft | 482 kts | 84° |
| 2026-05-08 03:19 | 19.75433 | -97.60994 | 29908 ft | 481 kts | 84° |
| 2026-05-08 03:19 | 19.75864 | -97.57474 | 29508 ft | 479 kts | 84° |
| 2026-05-08 03:19 | 19.76305 | -97.53974 | 29115 ft | 478 kts | 84° |
| 2026-05-08 03:19 | 19.76755 | -97.50523 | 28730 ft | 477 kts | 84° |
| 2026-05-08 03:20 | 19.77227 | -97.46996 | 28336 ft | 477 kts | 83° |
| 2026-05-08 03:20 | 19.77695 | -97.43552 | 27953 ft | 477 kts | 83° |
| 2026-05-08 03:20 | 19.78173 | -97.40048 | 27594 ft | 482 kts | 83° |
| 2026-05-08 03:20 | 19.78656 | -97.36515 | 27217 ft | 485 kts | 83° |
| 2026-05-08 03:21 | 19.79140 | -97.32974 | 26856 ft | 484 kts | 83° |
| 2026-05-08 03:21 | 19.79620 | -97.29447 | 26491 ft | 483 kts | 83° |
| 2026-05-08 03:21 | 19.80100 | -97.25919 | 26140 ft | 482 kts | 83° |
| 2026-05-08 03:21 | 19.80577 | -97.22398 | 25784 ft | 481 kts | 83° |
| 2026-05-08 03:22 | 19.81054 | -97.18873 | 25432 ft | 481 kts | 83° |
| 2026-05-08 03:22 | 19.81525 | -97.15360 | 25089 ft | 479 kts | 84° |
| 2026-05-08 03:22 | 19.81998 | -97.11854 | 24749 ft | 478 kts | 84° |
| 2026-05-08 03:22 | 19.82469 | -97.08358 | 24409 ft | 477 kts | 83° |
| 2026-05-08 03:23 | 19.82939 | -97.04870 | 24076 ft | 475 kts | 84° |
| 2026-05-08 03:23 | 19.83397 | -97.01456 | 23751 ft | 472 kts | 84° |
| 2026-05-08 03:23 | 19.83865 | -96.97966 | 23384 ft | 470 kts | 84° |
| 2026-05-08 03:23 | 19.84323 | -96.94541 | 22944 ft | 467 kts | 83° |
| 2026-05-08 03:24 | 19.84770 | -96.91197 | 22422 ft | 458 kts | 83° |
| 2026-05-08 03:24 | 19.85212 | -96.87886 | 21908 ft | 448 kts | 83° |
| 2026-05-08 03:24 | 19.85642 | -96.84656 | 21406 ft | 438 kts | 83° |
| 2026-05-08 03:24 | 19.86064 | -96.81486 | 20912 ft | 423 kts | 83° |
| 2026-05-08 03:25 | 19.86468 | -96.78444 | 20408 ft | 408 kts | 83° |
| 2026-05-08 03:25 | 19.86858 | -96.75500 | 19942 ft | 398 kts | 83° |
| 2026-05-08 03:25 | 19.87242 | -96.72594 | 19484 ft | 398 kts | 83° |
| 2026-05-08 03:25 | 19.87627 | -96.69673 | 19037 ft | 400 kts | 83° |
| 2026-05-08 03:26 | 19.88013 | -96.66750 | 18589 ft | 398 kts | 83° |
| 2026-05-08 03:26 | 19.88145 | -96.63847 | 18100 ft | 392 kts | 99° |
| 2026-05-08 03:26 | 19.87384 | -96.61106 | 17581 ft | 385 kts | 118° |
| 2026-05-08 03:26 | 19.85849 | -96.58806 | 16958 ft | 378 kts | 136° |
| 2026-05-08 03:27 | 19.83821 | -96.57112 | 16341 ft | 366 kts | 151° |
| 2026-05-08 03:27 | 19.81503 | -96.56093 | 15755 ft | 357 kts | 162° |
| 2026-05-08 03:27 | 19.79146 | -96.55355 | 15161 ft | 349 kts | 165° |
| 2026-05-08 03:27 | 19.76814 | -96.54682 | 14585 ft | 343 kts | 165° |
| 2026-05-08 03:28 | 19.74531 | -96.54030 | 14018 ft | 338 kts | 165° |
| 2026-05-08 03:28 | 19.72277 | -96.53380 | 13426 ft | 333 kts | 164° |
| 2026-05-08 03:28 | 19.70059 | -96.52729 | 12804 ft | 329 kts | 164° |
| 2026-05-08 03:28 | 19.67872 | -96.52081 | 12195 ft | 325 kts | 164° |
| 2026-05-08 03:29 | 19.65706 | -96.51434 | 11602 ft | 321 kts | 164° |
| 2026-05-08 03:29 | 19.63567 | -96.50792 | 11013 ft | 318 kts | 164° |
| 2026-05-08 03:29 | 19.61449 | -96.50155 | 10436 ft | 314 kts | 163° |
| 2026-05-08 03:29 | 19.59356 | -96.49526 | 9869 ft | 312 kts | 163° |
| 2026-05-08 03:30 | 19.55215 | -96.48279 | 8641 ft | 307 kts | 163° |
| 2026-05-08 03:30 | 19.51146 | -96.47053 | 7448 ft | 302 kts | 163° |
| 2026-05-08 03:31 | 19.47125 | -96.45843 | 6295 ft | 298 kts | 163° |
| 2026-05-08 03:31 | 19.43158 | -96.44649 | 5097 ft | 295 kts | 163° |
| 2026-05-08 03:32 | 19.41185 | -96.44055 | 4506 ft | 294 kts | 164° |
| 2026-05-08 03:32 | 19.39247 | -96.43472 | 4200 ft | 282 kts | 164° |
| 2026-05-08 03:32 | 19.37409 | -96.42920 | 4067 ft | 269 kts | 164° |
| 2026-05-08 03:32 | 19.35594 | -96.42375 | 4029 ft | 269 kts | 164° |
| 2026-05-08 03:33 | 19.33865 | -96.41856 | 4002 ft | 252 kts | 164° |
| 2026-05-08 03:33 | 19.32233 | -96.41366 | 3998 ft | 236 kts | 164° |
| 2026-05-08 03:33 | 19.30678 | -96.40899 | 4007 ft | 231 kts | 164° |
| 2026-05-08 03:33 | 19.29073 | -96.40418 | 4036 ft | 249 kts | 164° |
| 2026-05-08 03:34 | 19.27385 | -96.39911 | 4025 ft | 254 kts | 164° |
| 2026-05-08 03:34 | 19.25676 | -96.39399 | 4016 ft | 255 kts | 163° |
| 2026-05-08 03:34 | 19.23970 | -96.38887 | 4008 ft | 255 kts | 163° |
| 2026-05-08 03:34 | 19.22269 | -96.38377 | 4003 ft | 254 kts | 164° |
| 2026-05-08 03:35 | 19.20563 | -96.37867 | 4022 ft | 258 kts | 164° |
| 2026-05-08 03:35 | 19.18811 | -96.37342 | 4015 ft | 264 kts | 163° |
| 2026-05-08 03:35 | 19.15301 | -96.36290 | 4004 ft | 266 kts | 163° |
| 2026-05-08 03:36 | 19.13525 | -96.35759 | 3998 ft | 264 kts | 163° |
| 2026-05-08 03:36 | 19.11759 | -96.35230 | 3998 ft | 263 kts | 163° |
| 2026-05-08 03:36 | 19.10008 | -96.34706 | 3995 ft | 258 kts | 163° |
| 2026-05-08 03:36 | 19.08328 | -96.34203 | 3981 ft | 244 kts | 163° |
| 2026-05-08 03:37 | 19.06734 | -96.33726 | 3990 ft | 234 kts | 163° |
| 2026-05-08 03:37 | 19.05165 | -96.33257 | 4005 ft | 234 kts | 163° |
| 2026-05-08 03:37 | 19.03601 | -96.32789 | 4005 ft | 233 kts | 163° |
| 2026-05-08 03:37 | 19.02046 | -96.32324 | 3995 ft | 231 kts | 163° |
| 2026-05-08 03:38 | 19.00505 | -96.31863 | 4003 ft | 229 kts | 163° |
| 2026-05-08 03:38 | 18.99006 | -96.31328 | 3988 ft | 227 kts | 148° |
| 2026-05-08 03:38 | 18.97919 | -96.30105 | 3927 ft | 239 kts | 114° |
| 2026-05-08 03:38 | 18.97480 | -96.28388 | 3667 ft | 242 kts | 99° |
| 2026-05-08 03:39 | 18.97173 | -96.26663 | 3406 ft | 237 kts | 99° |
| 2026-05-08 03:39 | 18.96919 | -96.24973 | 3146 ft | 229 kts | 88° |
| 2026-05-08 03:39 | 18.97319 | -96.23425 | 2904 ft | 211 kts | 55° |
| 2026-05-08 03:39 | 18.98362 | -96.22478 | 2722 ft | 191 kts | 22° |
| 2026-05-08 03:40 | 18.99556 | -96.22027 | 2573 ft | 175 kts | 17° |
| 2026-05-08 03:40 | 19.00705 | -96.21663 | 2521 ft | 174 kts | 14° |
| 2026-05-08 03:40 | 19.01879 | -96.21378 | 2305 ft | 171 kts | 12° |
| 2026-05-08 03:40 | 19.03029 | -96.21132 | 2082 ft | 167 kts | 11° |
| 2026-05-08 03:41 | 19.04161 | -96.20897 | 1871 ft | 164 kts | 12° |
| 2026-05-08 03:41 | 19.05286 | -96.20663 | 1665 ft | 166 kts | 12° |
| 2026-05-08 03:41 | 19.06423 | -96.20427 | 1408 ft | 166 kts | 11° |
| 2026-05-08 03:41 | 19.07543 | -96.20196 | 1233 ft | 164 kts | 12° |
| 2026-05-08 03:42 | 19.08666 | -96.19963 | 997 ft | 164 kts | 11° |
| 2026-05-08 03:42 | 19.09767 | -96.19733 | 819 ft | 162 kts | 11° |
| 2026-05-08 03:42 | 19.10890 | -96.19502 | 487 ft | 163 kts | 11° |
| 2026-05-08 03:42 | 19.12000 | -96.19281 | 348 ft | 163 kts | 11° |
| 2026-05-08 03:43 | 19.13126 | -96.19037 | 119 ft | 165 kts | 11° |
| 2026-05-08 03:43 | 19.14243 | -96.18808 | 94 ft | 164 kts | 9° |
| 2026-05-08 03:43 | 19.15333 | -96.18571 | 137 ft | 163 kts | 12° |
| 2026-05-08 03:43 | 19.16525 | -96.18322 | 798 ft | 184 kts | 8° |
| 2026-05-08 03:44 | 19.17829 | -96.18242 | 1804 ft | 184 kts | 359° |
| 2026-05-08 03:44 | 19.19047 | -96.18345 | 3062 ft | 181 kts | 354° |
| 2026-05-08 03:44 | 19.20530 | -96.18617 | 2980 ft | 249 kts | 333° |
| 2026-05-08 03:44 | 19.21739 | -96.19879 | 3633 ft | 241 kts | 297° |
| 2026-05-08 03:45 | 19.21978 | -96.21494 | 3881 ft | 212 kts | 256° |
| 2026-05-08 03:45 | 19.21209 | -96.22717 | 3974 ft | 202 kts | 210° |
| 2026-05-08 03:45 | 19.19815 | -96.23213 | 4061 ft | 230 kts | 196° |
| 2026-05-08 03:45 | 19.18157 | -96.23762 | 4046 ft | 269 kts | 198° |
| 2026-05-08 03:46 | 19.16306 | -96.24421 | 4016 ft | 284 kts | 199° |
| 2026-05-08 03:46 | 19.14428 | -96.25047 | 3994 ft | 281 kts | 195° |
| 2026-05-08 03:46 | 19.12563 | -96.25604 | 3992 ft | 276 kts | 196° |
| 2026-05-08 03:46 | 19.10745 | -96.26230 | 3991 ft | 275 kts | 199° |
| 2026-05-08 03:47 | 19.08942 | -96.26927 | 3996 ft | 276 kts | 200° |
| 2026-05-08 03:47 | 19.07152 | -96.27630 | 3988 ft | 270 kts | 200° |
| 2026-05-08 03:47 | 19.05458 | -96.28289 | 3977 ft | 256 kts | 200° |
| 2026-05-08 03:47 | 19.03833 | -96.28915 | 3981 ft | 242 kts | 200° |
| 2026-05-08 03:48 | 19.02290 | -96.29505 | 3991 ft | 234 kts | 200° |
| 2026-05-08 03:48 | 19.00725 | -96.30101 | 4025 ft | 251 kts | 200° |
| 2026-05-08 03:48 | 18.98990 | -96.30761 | 4040 ft | 263 kts | 199° |
| 2026-05-08 03:48 | 18.97305 | -96.31322 | 3995 ft | 243 kts | 187° |
| 2026-05-08 03:49 | 18.95732 | -96.31156 | 4011 ft | 219 kts | 160° |
| 2026-05-08 03:49 | 18.94409 | -96.30407 | 4032 ft | 224 kts | 140° |
| 2026-05-08 03:49 | 18.93382 | -96.29156 | 3984 ft | 224 kts | 118° |
| 2026-05-08 03:49 | 18.92919 | -96.27664 | 3861 ft | 208 kts | 96° |
| 2026-05-08 03:50 | 18.92942 | -96.26177 | 3600 ft | 195 kts | 79° |
| 2026-05-08 03:50 | 18.93372 | -96.24892 | 3420 ft | 178 kts | 51° |
| 2026-05-08 03:50 | 18.94394 | -96.24315 | 3332 ft | 171 kts | 20° |
| 2026-05-08 03:50 | 18.95563 | -96.23925 | 2825 ft | 177 kts | 17° |
| 2026-05-08 03:51 | 18.96695 | -96.23546 | 2533 ft | 168 kts | 18° |
| 2026-05-08 03:51 | 18.97798 | -96.23157 | 2109 ft | 167 kts | 18° |
| 2026-05-08 03:51 | 18.98842 | -96.22786 | 1925 ft | 149 kts | 18° |
| 2026-05-08 03:51 | 18.99790 | -96.22458 | 1633 ft | 142 kts | 18° |
| 2026-05-08 03:52 | 19.00752 | -96.22140 | 1154 ft | 147 kts | 18° |
| 2026-05-08 03:52 | 19.01714 | -96.21787 | 822 ft | 143 kts | 20° |
| 2026-05-08 03:52 | 19.02614 | -96.21461 | 623 ft | 133 kts | 18° |
| 2026-05-08 03:52 | 19.03540 | -96.21138 | 479 ft | 160 kts | 18° |
| 2026-05-08 03:53 | 19.04624 | -96.20792 | 604 ft | 156 kts | 14° |
| 2026-05-08 03:53 | 19.05741 | -96.20539 | 671 ft | 171 kts | 11° |
| 2026-05-08 03:53 | 19.06874 | -96.20313 | 700 ft | 163 kts | 11° |
| 2026-05-08 03:53 | 19.07978 | -96.20087 | 733 ft | 159 kts | 12° |
| 2026-05-08 03:54 | 19.09057 | -96.19853 | 757 ft | 155 kts | 11° |
| 2026-05-08 03:54 | 19.10106 | -96.19653 | 784 ft | 153 kts | 11° |
| 2026-05-08 03:54 | 19.11194 | -96.19444 | 456 ft | 162 kts | 11° |
| 2026-05-08 03:54 | 19.12261 | -96.19224 | 231 ft | 148 kts | 11° |
| 2026-05-08 03:55 | 19.13206 | -96.19023 | 97 ft | 126 kts | 11° |
| 2026-05-08 03:55 | 19.13873 | -96.18884 | 88 ft | 33 kts | 11° |
| 2026-05-08 03:55 | 19.13982 | -96.18828 | 88 ft | 15 kts | 38° |
| 2026-05-08 03:55 | 19.14063 | -96.18757 | 86 ft | 15 kts | 41° |
| 2026-05-08 03:56 | 19.14141 | -96.18686 | 85 ft | 15 kts | 41° |
| 2026-05-08 03:56 | 19.14225 | -96.18616 | 85 ft | 15 kts | 24° |
| 2026-05-08 03:56 | 19.14305 | -96.18593 | 85 ft | 0 kts | 11° |
| 2026-05-08 03:56 | 19.14329 | -96.18584 | 85 ft | 10 kts | 30° |
| 2026-05-08 03:57 | 19.14361 | -96.18481 | 85 ft | 21 kts | 56° |
| 2026-05-08 03:57 | 19.14402 | -96.18420 | 86 ft | 0 kts | 74° |
| 2026-05-08 03:57 | 19.14468 | -96.18378 | 86 ft | 6 kts | 289° |
| 2026-05-08 03:57 | 19.14432 | -96.18394 | 87 ft | 7 kts | 193° |
| 2026-05-08 03:58 | 19.14397 | -96.18389 | 87 ft | 4 kts | 149° |
| 2026-05-08 03:58 | 19.14394 | -96.18388 | 87 ft | 0 kts | 149° |